createdAt,value
2022-12-31T00:00:38.419Z,99917.56
2022-12-31T00:03:07.021Z,99923.44
2022-12-31T00:05:37.322Z,99919.31
2022-12-31T00:08:05.246Z,99916.78
2022-12-31T00:10:34.176Z,99926.38
2022-12-31T00:13:02.011Z,99924.50
2022-12-31T00:15:30.007Z,99909.72
2022-12-31T00:17:59.145Z,99906.91
2022-12-31T00:20:26.984Z,99914.06
2022-12-31T00:22:55.004Z,99911.69
2022-12-31T00:25:23.061Z,99915.00
2022-12-31T00:27:50.912Z,99918.81
2022-12-31T00:30:18.871Z,99915.75
2022-12-31T00:32:46.762Z,99916.09
2022-12-31T00:35:15.885Z,99919.19
2022-12-31T00:37:43.580Z,99919.56
2022-12-31T00:40:12.468Z,99915.97
2022-12-31T00:42:40.371Z,99915.75
2022-12-31T00:45:09.306Z,99913.16
2022-12-31T00:47:37.221Z,99920.88
2022-12-31T00:50:05.545Z,99916.59
2022-12-31T00:52:34.703Z,99928.63
2022-12-31T00:55:02.641Z,99920.03
2022-12-31T00:57:30.308Z,99919.47
2022-12-31T00:59:58.091Z,99924.66
2022-12-31T01:02:26.066Z,99928.91
2022-12-31T01:04:54.100Z,99926.81
2022-12-31T01:07:21.870Z,99920.09
2022-12-31T01:09:51.004Z,99920.41
2022-12-31T01:12:18.848Z,99924.28
2022-12-31T01:14:46.638Z,99935.91
2022-12-31T01:17:14.468Z,99930.25
2022-12-31T01:19:42.320Z,99942.75
2022-12-31T01:22:10.127Z,99945.38
2022-12-31T01:24:38.003Z,99958.53
2022-12-31T01:27:07.084Z,99960.75
2022-12-31T01:29:34.954Z,99947.22
2022-12-31T01:32:02.768Z,99936.97
2022-12-31T01:34:30.516Z,99938.66
2022-12-31T01:36:58.281Z,99948.03
2022-12-31T01:39:26.241Z,99935.56
2022-12-31T01:41:54.052Z,99948.53
2022-12-31T01:45:01.435Z,99939.38
2022-12-31T01:47:37.692Z,99953.94
2022-12-31T01:50:11.393Z,99948.97
2022-12-31T01:52:42.673Z,99945.47
2022-12-31T01:55:17.445Z,99958.88
2022-12-31T01:57:46.927Z,99953.94
2022-12-31T02:00:17.536Z,99952.66
2022-12-31T02:02:47.610Z,99947.03
2022-12-31T02:05:20.952Z,99948.69
2022-12-31T02:07:49.668Z,99935.63
2022-12-31T02:10:18.355Z,99935.91
2022-12-31T02:12:46.823Z,99932.09
2022-12-31T02:15:14.719Z,99932.31
2022-12-31T02:17:53.314Z,99920.78
2022-12-31T02:20:50.007Z,99919.72
2022-12-31T02:23:45.425Z,99923.56
2022-12-31T02:26:38.333Z,99915.06
2022-12-31T02:29:30.384Z,99904.63
2022-12-31T02:32:03.823Z,99906.38
2022-12-31T02:34:35.545Z,99887.56
2022-12-31T02:37:07.934Z,99898.69
2022-12-31T02:39:37.539Z,99890.44
2022-12-31T02:42:05.501Z,99896.94
2022-12-31T02:44:34.762Z,99882.69
2022-12-31T02:47:21.670Z,99890.13
2022-12-31T02:50:03.798Z,99904.25
2022-12-31T02:52:42.404Z,99905.00
2022-12-31T02:55:17.716Z,99900.25
2022-12-31T02:57:54.218Z,99894.53
2022-12-31T03:00:40.064Z,99886.78
2022-12-31T03:03:10.202Z,99879.34
2022-12-31T03:05:42.216Z,99888.09
2022-12-31T03:08:10.300Z,99887.44
2022-12-31T03:10:38.398Z,99883.13
2022-12-31T03:13:05.230Z,99877.53
2022-12-31T03:15:35.328Z,99878.44
2022-12-31T03:18:05.199Z,99875.78
2022-12-31T03:20:54.325Z,99881.81
2022-12-31T03:23:26.492Z,99888.94
2022-12-31T03:25:54.928Z,99874.19
2022-12-31T03:28:25.273Z,99863.78
2022-12-31T03:30:56.010Z,99867.50
2022-12-31T03:33:24.440Z,99868.09
2022-12-31T03:35:54.087Z,99869.22
2022-12-31T03:38:21.960Z,99872.88
2022-12-31T03:40:51.979Z,99876.50
2022-12-31T03:43:21.118Z,99871.56
2022-12-31T03:45:51.611Z,99860.03
2022-12-31T03:48:20.259Z,99840.31
2022-12-31T03:50:48.151Z,99854.78
2022-12-31T03:53:17.723Z,99841.72
2022-12-31T03:55:45.798Z,99844.22
2022-12-31T03:58:13.954Z,99838.00
2022-12-31T04:00:41.965Z,99839.19
2022-12-31T04:03:10.158Z,99846.38
2022-12-31T04:05:38.322Z,99838.59
2022-12-31T04:08:06.391Z,99824.66
2022-12-31T04:10:36.003Z,99811.00
2022-12-31T04:13:04.688Z,99814.75
2022-12-31T04:15:33.168Z,99808.09
2022-12-31T04:18:01.029Z,99795.06
2022-12-31T04:20:28.904Z,99778.81
2022-12-31T04:22:56.727Z,99773.78
2022-12-31T04:25:24.534Z,99813.41
2022-12-31T04:27:53.800Z,99835.13
2022-12-31T04:30:21.581Z,99834.38
2022-12-31T04:32:49.461Z,99818.19
2022-12-31T04:35:17.478Z,99809.63
2022-12-31T04:37:45.477Z,99821.78
2022-12-31T04:40:13.811Z,99827.97
2022-12-31T04:42:43.069Z,99828.69
2022-12-31T04:45:12.967Z,99835.78
2022-12-31T04:47:40.895Z,99839.31
2022-12-31T04:50:10.623Z,99851.91
2022-12-31T04:52:42.639Z,99865.94
2022-12-31T04:55:11.834Z,99866.13
2022-12-31T04:57:40.027Z,99885.50
2022-12-31T05:00:09.380Z,99898.47
2022-12-31T05:02:38.991Z,99901.06
2022-12-31T05:05:07.610Z,99898.22
2022-12-31T05:07:35.611Z,99894.94
2022-12-31T05:10:03.490Z,99893.88
2022-12-31T05:12:31.504Z,99876.78
2022-12-31T05:14:59.402Z,99880.88
2022-12-31T05:17:27.348Z,99877.03
2022-12-31T05:19:56.561Z,99872.84
2022-12-31T05:22:30.457Z,99869.97
2022-12-31T05:24:59.257Z,99868.59
2022-12-31T05:27:28.059Z,99871.03
2022-12-31T05:29:55.998Z,99878.75
2022-12-31T05:32:24.069Z,99893.13
2022-12-31T05:34:51.971Z,99901.88
2022-12-31T05:37:21.547Z,99914.91
2022-12-31T05:39:49.513Z,99919.84
2022-12-31T05:42:17.586Z,99909.84
2022-12-31T05:44:45.750Z,99918.34
2022-12-31T05:47:13.861Z,99935.03
2022-12-31T05:49:41.914Z,99921.81
2022-12-31T05:52:09.987Z,99940.72
2022-12-31T05:54:39.603Z,99937.28
2022-12-31T05:57:08.378Z,99938.78
2022-12-31T05:59:36.552Z,99935.28
2022-12-31T06:02:05.156Z,99938.78
2022-12-31T06:04:34.050Z,99936.81
2022-12-31T06:07:02.785Z,99936.47
2022-12-31T06:09:30.967Z,99904.41
2022-12-31T06:12:00.508Z,99925.53
2022-12-31T06:14:28.490Z,99899.34
2022-12-31T06:16:56.754Z,99909.25
2022-12-31T06:19:24.990Z,99906.78
2022-12-31T06:21:53.196Z,99905.81
2022-12-31T06:24:21.598Z,99913.69
2022-12-31T06:26:50.018Z,99901.94
2022-12-31T06:29:19.522Z,99904.28
2022-12-31T06:31:48.149Z,99907.72
2022-12-31T06:34:16.619Z,99914.97
2022-12-31T06:36:44.743Z,99926.28
2022-12-31T06:39:12.778Z,99943.72
2022-12-31T06:41:43.149Z,99940.13
2022-12-31T06:44:11.384Z,99921.00
2022-12-31T06:46:41.063Z,99939.28
2022-12-31T06:49:09.252Z,99933.75
2022-12-31T06:51:37.293Z,99936.28
2022-12-31T06:54:05.415Z,99930.22
2022-12-31T06:56:35.068Z,99936.66
2022-12-31T06:59:04.473Z,99944.97
2022-12-31T07:01:52.476Z,99947.25
2022-12-31T07:04:38.452Z,99947.22
2022-12-31T07:07:15.329Z,99929.38
2022-12-31T07:09:53.035Z,99946.31
2022-12-31T07:12:33.399Z,99938.66
2022-12-31T07:15:07.828Z,99934.53
2022-12-31T07:17:44.705Z,99966.25
2022-12-31T07:20:15.409Z,99938.28
2022-12-31T07:22:43.901Z,99964.06
2022-12-31T07:25:15.665Z,99964.19
2022-12-31T07:28:06.261Z,99934.75
2022-12-31T07:30:44.175Z,99900.94
2022-12-31T07:33:40.285Z,99969.78
2022-12-31T07:36:21.975Z,99992.69
2022-12-31T07:38:55.181Z,99947.16
2022-12-31T07:41:41.163Z,99971.75
2022-12-31T07:44:35.453Z,99981.56
2022-12-31T07:47:07.016Z,99995.84
2022-12-31T07:49:43.673Z,99995.31
2022-12-31T07:52:12.380Z,99991.25
2022-12-31T07:54:40.530Z,100009.56
2022-12-31T07:57:08.754Z,100008.91
2022-12-31T07:59:50.252Z,99999.44
2022-12-31T08:02:33.968Z,100017.91
2022-12-31T08:05:16.764Z,100012.16
2022-12-31T08:07:53.221Z,100005.09
2022-12-31T08:10:30.150Z,100010.41
2022-12-31T08:13:03.838Z,100021.19
2022-12-31T08:15:32.437Z,100022.31
2022-12-31T08:18:00.915Z,100023.16
2022-12-31T08:20:33.861Z,100044.41
2022-12-31T08:23:16.388Z,100052.09
2022-12-31T08:26:06.002Z,100057.53
2022-12-31T08:28:49.175Z,100031.75
2022-12-31T08:31:21.431Z,100035.28
2022-12-31T08:33:59.469Z,100035.28
2022-12-31T08:36:43.222Z,100036.88
2022-12-31T08:39:24.119Z,100045.38
2022-12-31T08:41:55.437Z,100041.56
2022-12-31T08:44:34.042Z,100039.63
2022-12-31T08:47:14.625Z,100028.44
2022-12-31T08:49:43.770Z,100033.44
2022-12-31T08:52:21.200Z,100027.19
2022-12-31T08:54:49.737Z,100025.69
2022-12-31T08:57:26.146Z,100029.13
2022-12-31T09:00:04.200Z,100024.34
2022-12-31T09:02:58.011Z,100027.66
2022-12-31T09:05:32.536Z,100024.13
2022-12-31T09:08:10.841Z,100014.75
2022-12-31T09:10:45.150Z,100007.53
2022-12-31T09:13:20.217Z,100006.00
2022-12-31T09:15:53.814Z,100016.50
2022-12-31T09:18:22.266Z,100019.03
2022-12-31T09:20:50.472Z,100023.19
2022-12-31T09:23:20.299Z,100016.66
2022-12-31T09:25:58.916Z,100017.56
2022-12-31T09:28:37.931Z,100008.88
2022-12-31T09:31:12.465Z,100020.06
2022-12-31T09:33:48.622Z,100010.78
2022-12-31T09:36:23.375Z,100023.25
2022-12-31T09:39:01.909Z,100009.47
2022-12-31T09:41:56.657Z,100014.47
2022-12-31T09:45:00.668Z,100010.88
2022-12-31T09:48:04.687Z,100014.97
2022-12-31T09:50:53.778Z,100006.69
2022-12-31T09:53:43.266Z,100011.75
2022-12-31T09:56:21.712Z,100006.38
2022-12-31T09:59:06.748Z,100000.09
2022-12-31T10:01:47.306Z,100002.00
2022-12-31T10:04:46.490Z,99983.09
2022-12-31T10:07:52.948Z,99969.22
2022-12-31T10:10:28.736Z,99966.53
2022-12-31T10:13:47.695Z,99953.47
2022-12-31T10:16:58.136Z,99954.47
2022-12-31T10:20:29.393Z,99946.75
2022-12-31T10:27:19.637Z,99942.16
2022-12-31T10:30:08.103Z,99928.91
2022-12-31T10:33:00.911Z,99943.28
2022-12-31T10:35:48.413Z,99937.81
2022-12-31T10:38:28.535Z,99933.22
2022-12-31T10:41:39.666Z,99942.03
2022-12-31T10:44:40.442Z,99941.88
2022-12-31T10:47:59.658Z,99943.75
2022-12-31T10:50:49.053Z,99951.38
2022-12-31T10:53:57.634Z,99943.19
2022-12-31T10:57:13.232Z,99931.25
2022-12-31T11:00:19.660Z,99934.25
2022-12-31T11:03:30.095Z,99939.78
2022-12-31T11:06:27.585Z,99936.75
2022-12-31T11:09:32.699Z,99956.06
2022-12-31T11:12:12.224Z,99966.03
2022-12-31T11:14:58.451Z,99965.41
2022-12-31T11:17:50.308Z,99976.72
2022-12-31T11:20:50.975Z,99976.38
2022-12-31T11:24:13.381Z,99994.53
2022-12-31T11:30:56.572Z,100051.22
2022-12-31T11:40:56.382Z,100122.59
2022-12-31T11:44:02.726Z,100114.09
2022-12-31T11:48:27.942Z,100112.66
2022-12-31T11:58:17.375Z,100086.91
2022-12-31T12:00:56.532Z,100079.19
2022-12-31T12:03:26.477Z,100078.72
2022-12-31T12:05:58.170Z,100080.31
2022-12-31T12:08:29.549Z,100086.97
2022-12-31T12:11:08.239Z,100069.41
2022-12-31T12:13:38.380Z,100085.91
2022-12-31T12:16:09.854Z,100082.91
2022-12-31T12:18:53.069Z,100069.63
2022-12-31T12:21:23.974Z,100066.94
2022-12-31T12:23:57.386Z,100071.84
2022-12-31T12:26:49.553Z,100063.75
2022-12-31T12:29:22.519Z,100062.16
2022-12-31T12:31:59.387Z,100065.47
2022-12-31T12:34:31.394Z,100060.84
2022-12-31T12:37:00.993Z,100064.13
2022-12-31T12:39:32.836Z,100060.22
2022-12-31T12:42:04.094Z,100060.84
2022-12-31T12:44:36.162Z,100059.53
2022-12-31T12:47:20.286Z,100054.81
2022-12-31T12:50:04.060Z,100067.03
2022-12-31T12:53:09.302Z,100056.16
2022-12-31T12:55:50.516Z,100050.59
2022-12-31T12:58:44.965Z,100059.81
2022-12-31T13:01:34.623Z,100063.78
2022-12-31T13:04:51.033Z,100059.47
2022-12-31T13:07:40.171Z,100066.81
2022-12-31T13:10:46.731Z,100076.91
2022-12-31T13:13:30.578Z,100073.00
2022-12-31T13:16:08.885Z,100071.38
2022-12-31T13:19:01.754Z,100074.13
2022-12-31T13:21:56.142Z,100075.69
2022-12-31T13:24:58.508Z,100077.94
2022-12-31T13:27:46.038Z,100077.94
2022-12-31T13:30:22.644Z,100053.06
2022-12-31T13:33:03.896Z,100063.84
2022-12-31T13:35:53.413Z,100053.47
2022-12-31T13:38:31.454Z,100069.44
2022-12-31T13:41:18.699Z,100063.38
2022-12-31T13:43:57.882Z,100056.28
2022-12-31T13:46:43.651Z,100072.53
2022-12-31T13:49:23.686Z,100055.88
2022-12-31T13:52:01.003Z,100046.63
2022-12-31T13:54:39.058Z,100041.34
2022-12-31T13:57:26.243Z,100049.81
2022-12-31T14:00:05.950Z,100046.47
2022-12-31T14:02:51.823Z,100056.47
2022-12-31T14:05:32.218Z,100047.31
2022-12-31T14:08:06.618Z,100058.81
2022-12-31T14:10:56.513Z,100080.47
2022-12-31T14:13:42.822Z,100077.34
2022-12-31T14:16:36.364Z,100075.31
2022-12-31T14:34:51.855Z,100077.25
2022-12-31T14:37:55.816Z,100090.84
2022-12-31T14:40:59.357Z,100092.53
2022-12-31T14:47:08.392Z,100092.09
2022-12-31T14:53:18.344Z,100099.53
2022-12-31T14:56:19.228Z,100115.25
2022-12-31T15:02:06.223Z,100136.66
2022-12-31T15:04:45.105Z,100138.59
2022-12-31T15:07:23.716Z,100145.16
2022-12-31T15:10:04.772Z,100149.38
2022-12-31T15:12:53.440Z,100153.88
2022-12-31T15:15:33.662Z,100158.88
2022-12-31T15:18:19.348Z,100147.97
2022-12-31T15:21:11.278Z,100168.34
2022-12-31T15:23:44.687Z,100158.53
2022-12-31T15:26:24.355Z,100141.06
2022-12-31T15:29:02.791Z,100143.06
2022-12-31T15:31:33.739Z,100154.56
2022-12-31T15:34:06.357Z,100159.38
2022-12-31T15:36:38.305Z,100167.06
2022-12-31T15:39:23.337Z,100162.06
2022-12-31T15:42:36.308Z,100164.31
2022-12-31T15:44:51.643Z,100167.13
2022-12-31T15:47:29.360Z,100157.31
2022-12-31T15:50:04.346Z,100150.31
2022-12-31T15:52:40.965Z,100151.69
2022-12-31T15:55:15.822Z,100153.84
2022-12-31T15:57:46.220Z,100138.50
2022-12-31T16:00:19.800Z,100139.00
2022-12-31T16:02:50.085Z,100138.81
2022-12-31T16:05:23.038Z,100136.56
2022-12-31T16:07:58.277Z,100147.66
2022-12-31T16:10:36.084Z,100148.59
2022-12-31T16:13:06.755Z,100149.38
2022-12-31T16:15:37.066Z,100147.97
2022-12-31T16:18:08.279Z,100155.06
2022-12-31T16:20:46.438Z,100156.09
2022-12-31T16:23:23.341Z,100152.47
2022-12-31T16:25:54.849Z,100156.28
2022-12-31T16:28:32.078Z,100166.63
2022-12-31T16:31:09.655Z,100164.22
2022-12-31T16:33:49.108Z,100175.28
2022-12-31T16:36:23.248Z,100167.34
2022-12-31T16:38:52.103Z,100170.78
2022-12-31T16:41:22.137Z,100169.56
2022-12-31T16:43:51.665Z,100168.38
2022-12-31T16:46:26.442Z,100172.50
2022-12-31T17:29:50.889Z,100182.69
2022-12-31T17:32:31.651Z,100179.06
2022-12-31T17:35:00.567Z,100186.13
2022-12-31T17:37:31.666Z,100177.16
2022-12-31T17:40:49.947Z,100184.66
2022-12-31T17:42:52.587Z,100179.06
2022-12-31T17:45:23.377Z,100183.91
2022-12-31T17:47:54.086Z,100188.53
2022-12-31T17:50:26.810Z,100188.47
2022-12-31T17:52:59.908Z,100177.44
2022-12-31T17:55:29.810Z,100179.41
2022-12-31T17:58:04.706Z,100185.47
2022-12-31T18:00:34.209Z,100162.00
2022-12-31T18:03:02.988Z,100171.81
2022-12-31T18:05:31.323Z,100156.88
2022-12-31T18:08:12.406Z,100153.16
2022-12-31T18:10:49.731Z,100155.56
2022-12-31T18:13:34.739Z,100153.69
2022-12-31T18:16:05.603Z,100163.13
2022-12-31T18:18:40.644Z,100142.28
2022-12-31T18:21:17.339Z,100144.59
2022-12-31T18:26:33.236Z,100144.09
2022-12-31T18:29:15.740Z,100139.44
2022-12-31T18:31:47.421Z,100135.72
2022-12-31T18:34:18.088Z,100121.16
2022-12-31T18:36:48.172Z,100131.75
2022-12-31T18:39:16.526Z,100130.38
2022-12-31T18:41:47.051Z,100134.97
2022-12-31T18:44:17.629Z,100131.75
2022-12-31T18:46:46.199Z,100120.91
2022-12-31T18:49:15.638Z,100128.94
2022-12-31T18:51:43.993Z,100124.84
2022-12-31T18:54:15.080Z,100121.06
2022-12-31T18:56:49.290Z,100123.72
2022-12-31T18:59:22.029Z,100126.41
2022-12-31T19:01:50.734Z,100127.53
2022-12-31T19:04:27.004Z,100114.84
2022-12-31T19:06:58.885Z,100134.00
2022-12-31T19:12:16.207Z,100132.28
2022-12-31T19:14:45.890Z,100142.44
2022-12-31T19:17:14.379Z,100137.19
2022-12-31T19:19:42.421Z,100129.19
2022-12-31T19:22:14.899Z,100123.66
2022-12-31T19:24:43.112Z,100134.66
2022-12-31T19:27:11.843Z,100130.88
2022-12-31T19:29:40.452Z,100148.13
2022-12-31T19:32:12.472Z,100136.31
2022-12-31T19:34:42.214Z,100144.09
2022-12-31T19:37:16.188Z,100130.97
2022-12-31T19:39:46.341Z,100136.16
2022-12-31T19:42:18.737Z,100144.44
2022-12-31T19:44:48.772Z,100149.84
2022-12-31T19:47:31.895Z,100147.59
2022-12-31T19:50:03.009Z,100156.50
2022-12-31T19:52:31.620Z,100170.88
2022-12-31T19:55:00.035Z,100165.19
2022-12-31T19:57:28.198Z,100159.69
2022-12-31T19:59:57.574Z,100152.63
2022-12-31T20:02:31.993Z,100158.84
2022-12-31T20:05:03.498Z,100153.81
2022-12-31T20:07:34.671Z,100167.13
2022-12-31T20:10:03.951Z,100163.84
2022-12-31T20:12:37.849Z,100170.09
2022-12-31T20:15:12.133Z,100160.22
2022-12-31T20:17:45.430Z,100153.81
2022-12-31T20:20:17.996Z,100174.81
2022-12-31T20:22:48.525Z,100166.09
2022-12-31T20:25:17.368Z,100162.66
2022-12-31T20:27:47.643Z,100176.59
2022-12-31T20:30:22.319Z,100174.66
2022-12-31T20:32:56.299Z,100180.31
2022-12-31T20:35:26.138Z,100180.50
2022-12-31T20:37:59.590Z,100189.50
2022-12-31T20:40:37.267Z,100176.25
2022-12-31T20:43:14.085Z,100180.19
2022-12-31T20:45:48.728Z,100191.50
2022-12-31T20:48:24.019Z,100194.41
2022-12-31T20:51:10.687Z,100205.03
2022-12-31T20:56:45.224Z,100205.25
2022-12-31T20:59:22.192Z,100200.44
2022-12-31T21:02:20.591Z,100208.34
2022-12-31T21:04:42.201Z,100210.94
2022-12-31T21:07:14.144Z,100213.34
2022-12-31T21:09:45.490Z,100225.53
2022-12-31T21:12:32.973Z,100238.84
2022-12-31T21:15:04.620Z,100223.94
2022-12-31T21:17:34.354Z,100227.50
2022-12-31T21:20:05.561Z,100238.50
2022-12-31T21:22:36.326Z,100226.00
2022-12-31T21:25:08.104Z,100237.25
2022-12-31T21:27:38.789Z,100235.06
2022-12-31T21:30:19.349Z,100224.03
2022-12-31T21:32:50.555Z,100222.63
2022-12-31T21:38:09.435Z,100224.34
2022-12-31T21:40:38.027Z,100217.31
2022-12-31T21:43:16.706Z,100229.22
2022-12-31T21:45:45.458Z,100243.81
2022-12-31T21:48:21.344Z,100232.25
2022-12-31T21:50:52.766Z,100244.59
2022-12-31T21:53:30.432Z,100235.75
2022-12-31T21:56:09.540Z,100248.69
2022-12-31T21:58:38.633Z,100243.44
2022-12-31T22:01:24.692Z,100247.16
2022-12-31T22:03:53.354Z,100246.56
2022-12-31T22:06:24.146Z,100248.94
2022-12-31T22:08:54.197Z,100245.88
2022-12-31T22:11:24.295Z,100253.63
2022-12-31T22:13:53.851Z,100248.47
2022-12-31T22:16:23.109Z,100249.34
2022-12-31T22:18:51.900Z,100246.06
2022-12-31T22:21:23.771Z,100248.81
2022-12-31T22:23:54.515Z,100248.41
2022-12-31T22:26:24.827Z,100253.38
2022-12-31T22:28:53.163Z,100269.50
2022-12-31T22:31:24.725Z,100281.00
2022-12-31T22:33:53.890Z,100276.69
2022-12-31T22:36:25.100Z,100277.72
2022-12-31T22:38:57.394Z,100286.09
2022-12-31T22:41:28.057Z,100305.09
2022-12-31T22:44:03.184Z,100304.91
2022-12-31T22:46:33.660Z,100295.78
2022-12-31T22:49:04.899Z,100308.44
2022-12-31T22:51:55.696Z,100313.81
2022-12-31T22:54:25.489Z,100313.66
2022-12-31T22:56:54.715Z,100305.19
2022-12-31T22:59:24.976Z,100315.81
2022-12-31T23:01:54.094Z,100315.00
2022-12-31T23:04:27.056Z,100314.59
2022-12-31T23:07:04.026Z,100326.94
2022-12-31T23:09:52.107Z,100328.44
2022-12-31T23:12:23.768Z,100331.38
2022-12-31T23:15:13.486Z,100328.34
2022-12-31T23:17:59.756Z,100329.28
2022-12-31T23:20:46.246Z,100329.47
2022-12-31T23:23:24.291Z,100329.81
2022-12-31T23:25:55.845Z,100330.13
2022-12-31T23:28:28.316Z,100321.47
2022-12-31T23:30:57.421Z,100333.59
2022-12-31T23:33:31.068Z,100332.63
2022-12-31T23:36:07.460Z,100323.03
2022-12-31T23:38:38.731Z,100320.28
2022-12-31T23:41:14.600Z,100324.50
2022-12-31T23:43:44.120Z,100309.97
2022-12-31T23:46:16.519Z,100314.19
2022-12-31T23:48:49.276Z,100296.56
2022-12-31T23:51:21.053Z,100310.72
2022-12-31T23:53:56.803Z,100332.31
2022-12-31T23:56:28.152Z,100319.38
2022-12-31T23:58:57.729Z,100318.75
